Time;durP1;ratioP1;P1;durP2;ratioP2;P2;SDS_P1;SDS_P2;PMS_P1;PMS_P2;Temp;Humidity;BMP_temperature;BMP_pressure;BME280_temperature;BME280_humidity;BME280_pressure;Samples;Min_cycle;Max_cycle;Signal;HPM_P1;HPM_P2
2020/12/06 00:00:04;;;;;;;18.77;14.73;;;;;;;;;;6246704;22;20414;-74
2020/12/06 00:02:32;;;;;;;24.33;16.30;;;;;;;;;;6223120;22;20501;-74
2020/12/06 00:05:00;;;;;;;24.13;16.00;;;;;;;;;;6247718;22;20417;-74
2020/12/06 00:07:27;;;;;;;23.90;15.83;;;;;;;;;;6248641;22;20424;-75
2020/12/06 00:09:57;;;;;;;22.20;16.17;;;;;;;;;;6247052;22;20450;-76
2020/12/06 00:12:27;;;;;;;24.30;16.30;;;;;;;;;;6246597;22;20476;-74
2020/12/06 00:14:54;;;;;;;22.90;15.27;;;;;;;;;;6245622;22;20840;-74
2020/12/06 00:17:24;;;;;;;24.53;16.87;;;;;;;;;;6245609;22;20468;-74
2020/12/06 00:19:56;;;;;;;24.73;15.93;;;;;;;;;;6246539;22;20432;-74
2020/12/06 00:22:23;;;;;;;24.00;15.80;;;;;;;;;;6249017;22;20536;-74
2020/12/06 00:24:53;;;;;;;27.27;16.80;;;;;;;;;;6247738;22;20382;-74
2020/12/06 00:27:33;;;;;;;27.00;17.50;;;;;;;;;;6248290;22;20421;-74
2020/12/06 00:30:06;;;;;;;25.57;16.43;;;;;;;;;;6248346;22;20456;-75
2020/12/06 00:32:33;;;;;;;27.80;16.17;;;;;;;;;;6247716;22;20890;-73
2020/12/06 00:35:04;;;;;;;28.07;17.80;;;;;;;;;;6248007;22;20820;-75
2020/12/06 00:37:40;;;;;;;27.07;16.90;;;;;;;;;;6247722;22;20413;-75
2020/12/06 00:40:07;;;;;;;26.27;17.77;;;;;;;;;;6248689;22;20425;-74
2020/12/06 00:42:40;;;;;;;24.03;16.30;;;;;;;;;;6247126;22;20417;-75
2020/12/06 00:45:09;;;;;;;31.70;19.23;;;;;;;;;;6248261;22;20749;-75
2020/12/06 00:47:37;;;;;;;27.80;19.87;;;;;;;;;;6247659;22;20453;-74
2020/12/06 00:50:08;;;;;;;31.13;19.13;;;;;;;;;;6247146;22;20449;-74
2020/12/06 00:52:35;;;;;;;28.83;18.23;;;;;;;;;;6247949;22;20410;-74
2020/12/06 00:55:02;;;;;;;28.30;19.13;;;;;;;;;;6247311;22;20705;-74
2020/12/06 00:57:35;;;;;;;27.60;18.00;;;;;;;;;;6247938;22;20413;-73
2020/12/06 01:00:04;;;;;;;33.57;19.73;;;;;;;;;;6247398;22;20402;-74
2020/12/06 01:02:33;;;;;;;29.97;20.30;;;;;;;;;;6247245;22;20416;-74
2020/12/06 01:05:07;;;;;;;25.00;18.77;;;;;;;;;;6246522;22;20406;-75
2020/12/06 01:07:38;;;;;;;24.67;17.00;;;;;;;;;;6247407;22;20390;-74
2020/12/06 01:10:05;;;;;;;27.33;18.60;;;;;;;;;;6247450;22;20441;-75
2020/12/06 01:12:35;;;;;;;24.73;17.60;;;;;;;;;;6247632;22;20402;-75
2020/12/06 01:15:02;;;;;;;27.70;17.17;;;;;;;;;;6247749;22;20413;-75
2020/12/06 01:17:38;;;;;;;29.70;16.97;;;;;;;;;;6247602;22;20889;-75
2020/12/06 01:20:06;;;;;;;32.27;22.73;;;;;;;;;;6246804;22;20979;-76
2020/12/06 01:22:34;;;;;;;23.87;17.10;;;;;;;;;;6247770;22;20467;-75
2020/12/06 01:25:07;;;;;;;29.17;18.67;;;;;;;;;;6247822;22;20410;-75
2020/12/06 01:27:34;;;;;;;27.17;17.73;;;;;;;;;;6246947;22;20413;-75
2020/12/06 01:30:01;;;;;;;29.23;17.30;;;;;;;;;;6245092;22;20860;-75
2020/12/06 01:32:32;;;;;;;33.20;18.50;;;;;;;;;;6247172;22;20447;-75
2020/12/06 01:34:59;;;;;;;25.93;17.07;;;;;;;;;;6247673;22;20480;-74
2020/12/06 01:37:27;;;;;;;26.07;17.07;;;;;;;;;;6247466;22;20409;-75
2020/12/06 01:39:54;;;;;;;25.27;16.57;;;;;;;;;;6247837;22;20428;-74
2020/12/06 01:42:24;;;;;;;24.93;17.10;;;;;;;;;;6247797;22;20402;-74
2020/12/06 01:44:57;;;;;;;27.27;17.60;;;;;;;;;;6247431;22;20432;-74
2020/12/06 01:47:24;;;;;;;29.13;17.57;;;;;;;;;;6247109;22;20575;-74
2020/12/06 01:49:51;;;;;;;29.27;18.50;;;;;;;;;;6246765;22;20532;-74
2020/12/06 01:52:21;;;;;;;26.97;17.17;;;;;;;;;;6247026;22;20418;-74
2020/12/06 01:54:49;;;;;;;26.30;17.87;;;;;;;;;;6247418;22;20406;-75
2020/12/06 01:57:17;;;;;;;28.63;17.47;;;;;;;;;;6222499;22;20422;-74
2020/12/06 01:59:48;;;;;;;24.67;17.07;;;;;;;;;;6246293;22;20742;-74
2020/12/06 02:02:16;;;;;;;27.47;18.27;;;;;;;;;;6246919;22;20829;-74
2020/12/06 02:04:45;;;;;;;28.73;19.77;;;;;;;;;;6246517;22;20445;-74
2020/12/06 02:07:15;;;;;;;27.53;18.30;;;;;;;;;;6246765;22;20406;-74
2020/12/06 02:09:44;;;;;;;24.60;17.77;;;;;;;;;;6246769;22;20456;-74
2020/12/06 02:12:11;;;;;;;25.00;16.90;;;;;;;;;;6246986;22;20456;-74
2020/12/06 02:14:42;;;;;;;26.53;18.60;;;;;;;;;;6247043;22;20421;-75
2020/12/06 02:17:10;;;;;;;30.10;18.80;;;;;;;;;;6247845;22;20413;-75
2020/12/06 02:19:38;;;;;;;30.70;19.73;;;;;;;;;;6246481;22;20406;-75
2020/12/06 02:22:06;;;;;;;29.87;19.93;;;;;;;;;;6247428;22;20406;-74
2020/12/06 02:24:33;;;;;;;30.53;17.73;;;;;;;;;;6247117;22;20432;-75
2020/12/06 02:27:01;;;;;;;30.23;18.20;;;;;;;;;;6247452;22;20414;-75
2020/12/06 02:29:28;;;;;;;29.57;19.03;;;;;;;;;;6247176;22;20445;-74
2020/12/06 02:32:04;;;;;;;29.87;19.40;;;;;;;;;;6247562;22;20464;-75
2020/12/06 02:34:31;;;;;;;29.70;19.10;;;;;;;;;;6246941;22;20421;-75
2020/12/06 02:36:58;;;;;;;31.13;19.43;;;;;;;;;;6246059;22;20417;-75
2020/12/06 02:39:26;;;;;;;27.10;18.70;;;;;;;;;;6247237;22;20432;-74
2020/12/06 02:41:53;;;;;;;24.10;16.50;;;;;;;;;;6247063;22;20410;-75
2020/12/06 02:44:20;;;;;;;27.30;18.47;;;;;;;;;;6246613;22;20402;-75
2020/12/06 02:46:47;;;;;;;28.50;18.97;;;;;;;;;;6221947;22;20436;-75
2020/12/06 02:49:14;;;;;;;27.33;17.50;;;;;;;;;;6246588;22;20449;-74
2020/12/06 02:51:41;;;;;;;28.70;18.50;;;;;;;;;;6246958;22;20406;-75
2020/12/06 02:54:08;;;;;;;29.27;19.90;;;;;;;;;;6246920;22;20418;-74
2020/12/06 02:56:36;;;;;;;27.87;18.33;;;;;;;;;;6246901;22;20416;-75
2020/12/06 02:59:03;;;;;;;29.37;17.90;;;;;;;;;;6246730;22;20422;-74
2020/12/06 03:01:30;;;;;;;29.10;18.80;;;;;;;;;;6245756;22;20436;-75
2020/12/06 03:03:58;;;;;;;28.37;18.87;;;;;;;;;;6246187;22;20421;-74
2020/12/06 03:06:25;;;;;;;27.47;17.83;;;;;;;;;;6246186;22;20424;-74
2020/12/06 03:08:52;;;;;;;24.17;16.63;;;;;;;;;;6246222;22;20688;-75
2020/12/06 03:11:19;;;;;;;30.20;18.17;;;;;;;;;;6246717;22;20394;-74
2020/12/06 03:13:47;;;;;;;24.87;16.30;;;;;;;;;;6247761;22;20735;-75
2020/12/06 03:16:14;;;;;;;29.07;18.50;;;;;;;;;;6247570;22;20401;-75
2020/12/06 03:18:41;;;;;;;24.50;16.77;;;;;;;;;;6247867;22;20420;-75
2020/12/06 03:21:08;;;;;;;28.70;17.80;;;;;;;;;;6247999;22;20410;-74
2020/12/06 03:23:35;;;;;;;25.90;18.20;;;;;;;;;;6247148;22;20490;-74
2020/12/06 03:26:02;;;;;;;27.83;16.13;;;;;;;;;;6246499;22;20665;-74
2020/12/06 03:28:30;;;;;;;26.60;18.50;;;;;;;;;;6248400;22;20436;-75
2020/12/06 03:30:57;;;;;;;25.47;16.40;;;;;;;;;;6247706;22;20456;-74
2020/12/06 03:33:25;;;;;;;25.70;17.20;;;;;;;;;;6247921;22;20425;-75
2020/12/06 03:35:52;;;;;;;29.00;17.77;;;;;;;;;;6247809;22;20830;-74
2020/12/06 03:38:19;;;;;;;25.57;18.00;;;;;;;;;;6248116;22;20410;-74
2020/12/06 03:40:46;;;;;;;27.63;17.93;;;;;;;;;;6248347;22;20422;-75
2020/12/06 03:43:13;;;;;;;26.13;17.07;;;;;;;;;;6247454;22;20764;-74
2020/12/06 03:45:40;;;;;;;27.33;17.77;;;;;;;;;;6247717;22;20417;-74
2020/12/06 03:48:08;;;;;;;28.77;17.80;;;;;;;;;;6247551;22;20410;-75
2020/12/06 03:50:35;;;;;;;27.80;17.70;;;;;;;;;;6247910;22;20456;-74
2020/12/06 03:53:03;;;;;;;25.63;16.50;;;;;;;;;;6247528;22;20415;-74
2020/12/06 03:55:30;;;;;;;28.63;18.03;;;;;;;;;;6247822;22;20417;-74
2020/12/06 03:57:57;;;;;;;28.00;18.40;;;;;;;;;;6247550;22;20402;-74
2020/12/06 04:00:24;;;;;;;25.97;16.77;;;;;;;;;;6247590;22;20520;-74
2020/12/06 04:02:52;;;;;;;23.50;17.20;;;;;;;;;;6247110;22;20425;-75
2020/12/06 04:05:20;;;;;;;28.00;17.83;;;;;;;;;;6247269;22;20574;-75
2020/12/06 04:07:52;;;;;;;27.67;18.67;;;;;;;;;;6247397;22;20528;-76
2020/12/06 04:10:28;;;;;;;28.23;18.93;;;;;;;;;;6247409;22;21053;-74
2020/12/06 04:12:55;;;;;;;28.83;17.40;;;;;;;;;;6247663;22;20425;-74
2020/12/06 04:15:25;;;;;;;25.43;16.83;;;;;;;;;;6246939;22;20414;-74
2020/12/06 04:17:52;;;;;;;24.30;17.40;;;;;;;;;;6247247;22;20410;-74
2020/12/06 04:20:20;;;;;;;25.00;17.93;;;;;;;;;;6247776;22;20441;-74
2020/12/06 04:22:47;;;;;;;27.57;17.23;;;;;;;;;;6247299;22;20416;-74
2020/12/06 04:25:14;;;;;;;31.23;19.40;;;;;;;;;;6247420;22;20432;-74
2020/12/06 04:27:41;;;;;;;27.70;18.40;;;;;;;;;;6248345;22;20833;-75
2020/12/06 04:30:09;;;;;;;28.20;18.70;;;;;;;;;;6246721;22;20448;-75
2020/12/06 04:32:36;;;;;;;26.17;18.40;;;;;;;;;;6247800;22;20409;-74
2020/12/06 04:35:03;;;;;;;31.47;18.80;;;;;;;;;;6247507;22;20476;-75
2020/12/06 04:37:31;;;;;;;24.60;17.57;;;;;;;;;;6248031;22;20406;-75
2020/12/06 04:39:59;;;;;;;25.20;17.80;;;;;;;;;;6247924;22;20417;-75
2020/12/06 04:42:26;;;;;;;28.40;18.30;;;;;;;;;;6247525;22;20496;-75
2020/12/06 04:44:53;;;;;;;27.37;17.07;;;;;;;;;;6248092;22;20544;-74
2020/12/06 04:47:29;;;;;;;27.73;17.90;;;;;;;;;;6247899;22;20418;-75
2020/12/06 04:50:03;;;;;;;26.30;18.00;;;;;;;;;;6247188;22;20735;-75
2020/12/06 04:52:38;;;;;;;29.20;18.40;;;;;;;;;;6247950;22;20409;-75
2020/12/06 04:55:07;;;;;;;27.30;18.00;;;;;;;;;;6222408;22;20412;-75
2020/12/06 04:57:38;;;;;;;29.30;17.93;;;;;;;;;;6248223;22;20406;-75
2020/12/06 05:00:06;;;;;;;28.40;18.17;;;;;;;;;;6247424;22;20416;-74
2020/12/06 05:02:35;;;;;;;29.30;17.53;;;;;;;;;;6247542;22;20479;-74
2020/12/06 05:05:03;;;;;;;26.63;17.17;;;;;;;;;;6248428;22;20406;-75
2020/12/06 05:07:32;;;;;;;27.80;16.90;;;;;;;;;;6247476;22;20410;-74
2020/12/06 05:10:00;;;;;;;32.80;17.57;;;;;;;;;;6247222;22;20433;-76
2020/12/06 05:12:27;;;;;;;26.93;18.47;;;;;;;;;;6247265;22;20808;-75
2020/12/06 05:14:56;;;;;;;25.63;17.23;;;;;;;;;;6247189;22;20513;-75
2020/12/06 05:17:24;;;;;;;29.50;17.00;;;;;;;;;;6248701;22;20410;-75
2020/12/06 05:19:51;;;;;;;25.80;15.70;;;;;;;;;;6247990;22;20487;-74
2020/12/06 05:22:18;;;;;;;25.87;18.77;;;;;;;;;;6248144;22;20417;-74
2020/12/06 05:24:47;;;;;;;29.47;17.57;;;;;;;;;;6246472;22;20405;-74
2020/12/06 05:27:14;;;;;;;24.80;17.80;;;;;;;;;;6248365;22;20425;-75
2020/12/06 05:29:42;;;;;;;25.30;17.27;;;;;;;;;;6247702;22;20445;-74
2020/12/06 05:32:09;;;;;;;28.43;18.13;;;;;;;;;;6246969;22;20402;-75
2020/12/06 05:34:40;;;;;;;28.37;17.33;;;;;;;;;;6246840;22;20414;-74
2020/12/06 05:37:07;;;;;;;28.40;17.70;;;;;;;;;;6247029;22;20401;-74
2020/12/06 05:39:37;;;;;;;27.33;17.60;;;;;;;;;;6247478;22;20431;-74
2020/12/06 05:42:05;;;;;;;26.40;15.80;;;;;;;;;;6246870;22;21113;-75
2020/12/06 05:44:35;;;;;;;25.83;16.70;;;;;;;;;;6247752;22;20409;-77
2020/12/06 05:47:13;;;;;;;28.47;17.83;;;;;;;;;;6246626;22;20445;-75
2020/12/06 05:49:40;;;;;;;24.43;16.50;;;;;;;;;;6246813;22;20446;-75
2020/12/06 05:52:08;;;;;;;22.17;16.17;;;;;;;;;;6247599;22;20462;-75
2020/12/06 05:54:35;;;;;;;26.73;17.27;;;;;;;;;;6247058;22;20417;-75
2020/12/06 05:57:02;;;;;;;28.63;16.67;;;;;;;;;;6246982;22;20401;-76
2020/12/06 05:59:34;;;;;;;25.87;16.43;;;;;;;;;;6247492;22;20417;-75
2020/12/06 06:02:05;;;;;;;26.30;16.17;;;;;;;;;;6246846;22;20832;-75
2020/12/06 06:04:33;;;;;;;27.37;16.70;;;;;;;;;;6247926;22;20417;-75
2020/12/06 06:07:03;;;;;;;23.40;17.20;;;;;;;;;;6247353;22;20490;-75
2020/12/06 06:09:32;;;;;;;28.33;18.57;;;;;;;;;;6247434;22;20475;-75
2020/12/06 06:12:08;;;;;;;27.93;17.50;;;;;;;;;;6247339;22;20413;-74
2020/12/06 06:14:38;;;;;;;26.03;17.37;;;;;;;;;;6246947;22;20418;-74
2020/12/06 06:17:05;;;;;;;28.53;18.53;;;;;;;;;;6246796;22;20413;-74
2020/12/06 06:19:32;;;;;;;28.27;18.23;;;;;;;;;;6247233;22;20423;-74
2020/12/06 06:22:00;;;;;;;33.20;19.70;;;;;;;;;;6246770;22;20479;-74
2020/12/06 06:24:28;;;;;;;29.97;17.77;;;;;;;;;;6247188;22;20418;-74
2020/12/06 06:26:55;;;;;;;32.07;19.60;;;;;;;;;;6246578;22;20406;-74
2020/12/06 06:29:25;;;;;;;32.77;17.67;;;;;;;;;;6247350;22;20433;-75
2020/12/06 06:31:54;;;;;;;28.60;19.00;;;;;;;;;;6247670;22;20902;-75
2020/12/06 06:34:23;;;;;;;33.37;18.30;;;;;;;;;;6246488;22;20417;-74
2020/12/06 06:36:53;;;;;;;28.43;17.90;;;;;;;;;;6247090;22;20409;-75
2020/12/06 06:39:20;;;;;;;25.37;17.10;;;;;;;;;;6245723;22;20414;-75
2020/12/06 06:42:05;;;;;;;28.97;18.53;;;;;;;;;;6247284;22;20418;-75
2020/12/06 06:44:32;;;;;;;31.10;18.40;;;;;;;;;;6246578;22;20710;-74
2020/12/06 06:47:04;;;;;;;27.23;19.60;;;;;;;;;;6246546;22;20425;-75
2020/12/06 06:49:34;;;;;;;33.07;19.13;;;;;;;;;;6248679;22;20528;-75
2020/12/06 06:52:04;;;;;;;26.70;16.50;;;;;;;;;;6247045;22;20411;-75
2020/12/06 06:54:32;;;;;;;26.07;17.17;;;;;;;;;;6247455;22;20463;-74
2020/12/06 06:57:00;;;;;;;26.53;17.90;;;;;;;;;;6247928;22;20432;-75
2020/12/06 06:59:37;;;;;;;28.00;19.33;;;;;;;;;;6247801;22;20567;-74
2020/12/06 07:02:06;;;;;;;29.73;18.47;;;;;;;;;;6247990;22;20414;-74
2020/12/06 07:04:33;;;;;;;28.70;18.40;;;;;;;;;;6246890;22;20409;-74
2020/12/06 07:07:00;;;;;;;27.40;18.37;;;;;;;;;;6248049;22;20424;-74
2020/12/06 07:09:28;;;;;;;31.20;21.10;;;;;;;;;;6248443;22;20441;-74
2020/12/06 07:11:56;;;;;;;26.90;18.57;;;;;;;;;;6249190;22;20463;-74
2020/12/06 07:14:23;;;;;;;28.20;19.00;;;;;;;;;;6248536;22;20683;-74
2020/12/06 07:16:51;;;;;;;28.27;18.60;;;;;;;;;;6248577;22;20857;-74
2020/12/06 07:19:19;;;;;;;30.07;18.80;;;;;;;;;;6247566;22;20509;-74
2020/12/06 07:21:48;;;;;;;27.37;17.77;;;;;;;;;;6248295;22;20839;-74
2020/12/06 07:24:16;;;;;;;27.50;17.77;;;;;;;;;;6247865;22;20502;-74
2020/12/06 07:26:43;;;;;;;27.90;18.77;;;;;;;;;;6247823;22;20449;-74
2020/12/06 07:29:10;;;;;;;27.13;17.50;;;;;;;;;;6247893;22;20729;-74
2020/12/06 07:31:38;;;;;;;30.00;18.53;;;;;;;;;;6248185;22;20422;-74
2020/12/06 07:34:06;;;;;;;26.13;17.23;;;;;;;;;;6247488;22;20471;-74
2020/12/06 07:36:34;;;;;;;26.10;19.50;;;;;;;;;;6248652;22;20410;-75
2020/12/06 07:39:01;;;;;;;31.00;19.37;;;;;;;;;;6248600;22;20417;-75
2020/12/06 07:41:32;;;;;;;28.93;18.67;;;;;;;;;;6247981;22;20421;-75
2020/12/06 07:43:59;;;;;;;29.97;18.87;;;;;;;;;;6247167;22;20438;-75
2020/12/06 07:46:26;;;;;;;27.27;18.73;;;;;;;;;;6247806;22;20854;-74
2020/12/06 07:49:00;;;;;;;28.37;19.17;;;;;;;;;;6246972;22;20418;-75
2020/12/06 07:51:30;;;;;;;29.20;18.47;;;;;;;;;;6247461;22;20453;-75
2020/12/06 07:54:01;;;;;;;27.23;18.40;;;;;;;;;;6247329;22;20408;-75
2020/12/06 07:56:29;;;;;;;27.50;18.63;;;;;;;;;;6247441;22;20451;-75
2020/12/06 07:59:20;;;;;;;24.77;16.47;;;;;;;;;;6247200;22;20479;-75
2020/12/06 08:01:48;;;;;;;28.40;18.23;;;;;;;;;;6218302;22;20421;-75
2020/12/06 08:04:19;;;;;;;25.83;16.97;;;;;;;;;;6247500;22;20444;-73
2020/12/06 08:06:48;;;;;;;30.27;20.17;;;;;;;;;;6247230;22;20436;-75
2020/12/06 08:09:16;;;;;;;31.43;19.60;;;;;;;;;;6247241;22;20413;-74
2020/12/06 08:11:44;;;;;;;32.60;19.67;;;;;;;;;;6247358;22;20495;-75
2020/12/06 08:14:11;;;;;;;27.90;20.13;;;;;;;;;;6247569;22;20463;-75
2020/12/06 08:16:39;;;;;;;29.40;19.47;;;;;;;;;;6247912;22;20721;-75
2020/12/06 08:19:06;;;;;;;27.50;17.90;;;;;;;;;;6247748;22;20830;-74
2020/12/06 08:21:46;;;;;;;26.83;18.20;;;;;;;;;;6248432;22;20418;-75
2020/12/06 08:24:24;;;;;;;30.20;18.50;;;;;;;;;;6247795;22;20374;-74
2020/12/06 08:26:52;;;;;;;30.13;18.70;;;;;;;;;;6247575;22;20839;-74
2020/12/06 08:29:20;;;;;;;27.20;18.10;;;;;;;;;;6247548;22;20414;-75
2020/12/06 08:31:48;;;;;;;25.43;18.03;;;;;;;;;;6247837;22;20416;-75
2020/12/06 08:34:16;;;;;;;26.77;18.77;;;;;;;;;;6247759;22;20410;-75
2020/12/06 08:36:43;;;;;;;27.40;18.30;;;;;;;;;;6247165;22;20840;-75
2020/12/06 08:39:20;;;;;;;29.53;19.90;;;;;;;;;;6246647;22;20421;-75
2020/12/06 08:41:48;;;;;;;28.80;19.60;;;;;;;;;;6246601;22;20417;-75
2020/12/06 08:44:15;;;;;;;29.37;18.57;;;;;;;;;;6247742;22;20413;-74
2020/12/06 08:46:51;;;;;;;29.63;18.40;;;;;;;;;;6246825;22;20515;-76
2020/12/06 08:49:19;;;;;;;29.60;19.73;;;;;;;;;;6246523;22;20405;-74
2020/12/06 08:51:50;;;;;;;30.53;19.07;;;;;;;;;;6245512;22;20424;-74
2020/12/06 08:54:31;;;;;;;28.03;19.50;;;;;;;;;;6247870;22;20840;-75
2020/12/06 08:57:09;;;;;;;28.87;18.00;;;;;;;;;;6246996;22;20420;-74
2020/12/06 08:59:37;;;;;;;29.27;19.13;;;;;;;;;;6246274;22;20417;-75
2020/12/06 09:02:05;;;;;;;30.70;19.03;;;;;;;;;;6247230;22;20425;-75
2020/12/06 09:04:34;;;;;;;32.00;20.20;;;;;;;;;;6247550;22;20870;-76
2020/12/06 09:07:01;;;;;;;28.17;19.00;;;;;;;;;;6246567;22;20432;-75
2020/12/06 09:09:32;;;;;;;25.97;18.50;;;;;;;;;;6245902;22;20409;-75
2020/12/06 09:12:05;;;;;;;33.40;19.83;;;;;;;;;;6246807;22;20433;-75
2020/12/06 09:14:47;;;;;;;30.27;19.43;;;;;;;;;;6246884;22;20406;-76
2020/12/06 09:20:06;;;;;;;28.43;18.37;;;;;;;;;;6245825;22;20404;-75
2020/12/06 09:22:36;;;;;;;31.90;18.80;;;;;;;;;;6248170;22;20645;-74
2020/12/06 09:25:03;;;;;;;31.43;19.17;;;;;;;;;;6246474;22;20463;-74
2020/12/06 09:27:33;;;;;;;28.57;19.37;;;;;;;;;;6247254;22;20414;-74
2020/12/06 09:30:04;;;;;;;31.47;20.07;;;;;;;;;;6246015;22;20724;-75
2020/12/06 09:32:31;;;;;;;33.63;21.17;;;;;;;;;;6244920;22;20465;-74
2020/12/06 09:35:00;;;;;;;30.07;19.50;;;;;;;;;;6246483;22;20414;-74
2020/12/06 09:37:27;;;;;;;32.37;20.10;;;;;;;;;;6245983;22;20513;-74
2020/12/06 09:39:54;;;;;;;31.33;21.00;;;;;;;;;;6247269;22;20414;-73
2020/12/06 09:42:21;;;;;;;28.77;21.30;;;;;;;;;;6247334;22;20417;-74
2020/12/06 09:44:50;;;;;;;29.43;19.07;;;;;;;;;;6246307;22;20405;-74
2020/12/06 09:47:18;;;;;;;31.60;21.13;;;;;;;;;;6247290;22;20449;-75
2020/12/06 09:49:46;;;;;;;34.77;24.13;;;;;;;;;;6245951;22;20512;-74
2020/12/06 09:52:13;;;;;;;31.47;20.43;;;;;;;;;;6245357;22;20428;-74
2020/12/06 09:54:42;;;;;;;35.37;22.13;;;;;;;;;;6246467;22;20434;-75
2020/12/06 09:57:10;;;;;;;29.40;21.17;;;;;;;;;;6246242;22;20413;-75
2020/12/06 09:59:37;;;;;;;32.70;21.73;;;;;;;;;;6247471;22;20742;-76
2020/12/06 10:05:07;;;;;;;30.63;21.20;;;;;;;;;;6246348;22;20413;-75
2020/12/06 10:07:38;;;;;;;34.97;20.73;;;;;;;;;;6246643;22;20424;-74
2020/12/06 10:10:06;;;;;;;26.50;18.23;;;;;;;;;;6245852;22;20441;-73
2020/12/06 10:12:34;;;;;;;30.43;19.30;;;;;;;;;;6246776;22;20479;-74
2020/12/06 10:15:03;;;;;;;30.20;20.67;;;;;;;;;;6245401;22;20681;-74
2020/12/06 10:17:31;;;;;;;32.87;19.67;;;;;;;;;;6245687;22;20405;-74
2020/12/06 10:19:58;;;;;;;35.63;21.90;;;;;;;;;;6246086;22;20870;-74
2020/12/06 10:22:35;;;;;;;30.70;20.30;;;;;;;;;;6247874;22;20402;-74
2020/12/06 10:25:12;;;;;;;31.47;21.90;;;;;;;;;;6251002;22;20421;-75
2020/12/06 10:31:04;;;;;;;27.80;20.43;;;;;;;;;;6123156;23;20484;-74
2020/12/06 10:36:49;;;;;;;30.27;20.40;;;;;;;;;;6189038;22;20524;-75
2020/12/06 10:39:57;;;;;;;25.73;20.07;;;;;;;;;;6250109;22;20402;-75
2020/12/06 10:51:45;;;;;;;29.70;21.20;;;;;;;;;;6129070;23;20444;-76
2020/12/06 10:54:39;;;;;;;37.40;20.40;;;;;;;;;;6250503;22;20504;-76
2020/12/06 11:03:10;;;;;;;34.93;20.90;;;;;;;;;;6183680;23;20414;-75
2020/12/06 11:08:48;;;;;;;34.70;21.10;;;;;;;;;;6186344;23;20392;-75
2020/12/06 11:14:37;;;;;;;31.60;21.13;;;;;;;;;;6247894;22;20878;-75
2020/12/06 11:17:34;;;;;;;32.23;20.73;;;;;;;;;;6208793;22;20446;-74
2020/12/06 11:23:21;;;;;;;31.97;22.30;;;;;;;;;;6241889;22;20425;-73
2020/12/06 11:28:59;;;;;;;31.90;19.70;;;;;;;;;;6267958;22;20428;-75
2020/12/06 11:31:47;;;;;;;30.00;22.13;;;;;;;;;;6284218;22;20448;-74
2020/12/06 11:34:38;;;;;;;32.20;22.53;;;;;;;;;;6213527;23;20705;-75
2020/12/06 11:37:30;;;;;;;33.03;22.20;;;;;;;;;;6220778;23;20414;-75
2020/12/06 11:42:49;;;;;;;34.30;22.50;;;;;;;;;;6188667;23;20475;-74
2020/12/06 11:45:55;;;;;;;29.37;19.23;;;;;;;;;;6222605;23;20895;-75
2020/12/06 11:48:30;;;;;;;34.03;20.77;;;;;;;;;;6219776;23;20490;-74
2020/12/06 11:51:21;;;;;;;29.27;20.17;;;;;;;;;;6220031;23;21015;-74
2020/12/06 11:57:15;;;;;;;34.23;22.43;;;;;;;;;;6110855;23;20476;-75
2020/12/06 12:02:57;;;;;;;32.97;21.10;;;;;;;;;;6214433;23;20411;-74
2020/12/06 12:05:28;;;;;;;36.83;23.50;;;;;;;;;;6196487;23;20435;-75
2020/12/06 12:11:36;;;;;;;38.97;22.40;;;;;;;;;;6050776;23;20454;-73
2020/12/06 12:16:59;;;;;;;34.43;21.57;;;;;;;;;;6181307;23;20468;-74
2020/12/06 12:19:43;;;;;;;32.67;20.50;;;;;;;;;;6218876;23;20453;-74
2020/12/06 12:22:32;;;;;;;34.40;22.80;;;;;;;;;;6216877;23;20444;-75
2020/12/06 12:24:59;;;;;;;36.67;24.33;;;;;;;;;;6216739;23;20892;-74
2020/12/06 12:27:29;;;;;;;35.53;22.47;;;;;;;;;;6216795;23;20438;-76
2020/12/06 12:30:02;;;;;;;32.37;21.33;;;;;;;;;;6218088;23;20462;-74
2020/12/06 12:32:35;;;;;;;35.17;22.90;;;;;;;;;;6216274;23;20410;-74
2020/12/06 12:35:21;;;;;;;35.20;22.57;;;;;;;;;;6216616;23;20505;-74
2020/12/06 12:40:50;;;;;;;34.20;23.27;;;;;;;;;;6185904;23;20812;-74
2020/12/06 12:43:27;;;;;;;30.73;21.43;;;;;;;;;;6215776;23;20411;-74
2020/12/06 12:46:01;;;;;;;37.10;21.40;;;;;;;;;;6216010;23;20500;-75
2020/12/06 12:48:45;;;;;;;31.33;20.90;;;;;;;;;;6217131;23;20875;-73
2020/12/06 12:51:22;;;;;;;33.47;21.97;;;;;;;;;;6215838;23;20453;-73
2020/12/06 12:54:01;;;;;;;35.63;22.27;;;;;;;;;;6216141;23;20836;-73
2020/12/06 12:56:41;;;;;;;34.53;22.60;;;;;;;;;;6215895;23;20760;-73
2020/12/06 12:59:35;;;;;;;36.77;23.80;;;;;;;;;;6215709;22;20444;-73
2020/12/06 13:07:58;;;;;;;34.40;23.70;;;;;;;;;;6239848;22;20463;-73
2020/12/06 13:10:47;;;;;;;34.13;23.87;;;;;;;;;;6242581;22;20544;-73
2020/12/06 13:13:55;;;;;;;;;;;;;;;;;;;;;
2020/12/06 13:16:35;;;;;;;33.33;21.90;;;;;;;;;;6242782;22;20434;-74
2020/12/06 13:19:58;;;;;;;33.27;23.93;;;;;;;;;;6242220;22;20859;-75
2020/12/06 13:22:32;;;;;;;35.67;22.83;;;;;;;;;;6241472;22;20760;-75
2020/12/06 13:25:31;;;;;;;;;;;;;;;;;;;;;
2020/12/06 13:28:00;;;;;;;34.80;23.23;;;;;;;;;;6243053;22;20406;-75
2020/12/06 13:30:47;;;;;;;38.13;22.00;;;;;;;;;;6243420;22;20446;-74
2020/12/06 13:33:15;;;;;;;33.97;23.53;;;;;;;;;;6241263;22;20470;-74
2020/12/06 13:35:42;;;;;;;32.20;23.13;;;;;;;;;;6240317;22;20418;-74
2020/12/06 13:38:10;;;;;;;37.73;24.40;;;;;;;;;;6242763;22;20422;-74
2020/12/06 13:40:37;;;;;;;36.90;22.80;;;;;;;;;;6242066;22;20414;-74
2020/12/06 13:43:05;;;;;;;38.37;25.00;;;;;;;;;;6243177;22;20516;-76
2020/12/06 13:45:33;;;;;;;30.20;21.77;;;;;;;;;;6242787;22;20776;-75
2020/12/06 13:48:04;;;;;;;36.37;22.70;;;;;;;;;;6242439;22;20722;-75
2020/12/06 13:50:35;;;;;;;33.30;22.77;;;;;;;;;;6241770;22;20445;-75
2020/12/06 13:53:02;;;;;;;41.27;22.63;;;;;;;;;;6243979;22;20417;-72
2020/12/06 13:55:31;;;;;;;36.57;24.00;;;;;;;;;;6242840;22;20398;-75
2020/12/06 13:57:58;;;;;;;33.60;24.10;;;;;;;;;;6243074;22;20414;-75
2020/12/06 14:03:39;;;;;;;33.40;22.70;;;;;;;;;;6236020;22;20422;-74
2020/12/06 14:06:16;;;;;;;37.43;22.93;;;;;;;;;;6241659;22;20500;-74
2020/12/06 14:08:53;;;;;;;;;;;;;;;;;;;;;
2020/12/06 14:11:24;;;;;;;33.23;24.03;;;;;;;;;;6243146;22;20524;-75
2020/12/06 14:13:56;;;;;;;35.17;23.80;;;;;;;;;;6242215;22;20406;-74
2020/12/06 14:16:28;;;;;;;38.17;23.80;;;;;;;;;;6219162;22;20423;-75
2020/12/06 14:19:04;;;;;;;33.83;23.43;;;;;;;;;;6241224;22;20440;-75
2020/12/06 14:21:37;;;;;;;36.03;24.23;;;;;;;;;;6241653;22;20432;-74
2020/12/06 14:24:09;;;;;;;36.20;25.20;;;;;;;;;;6242810;22;21064;-74
2020/12/06 14:26:37;;;;;;;42.07;25.23;;;;;;;;;;6242650;22;20523;-74
2020/12/06 14:29:04;;;;;;;40.17;23.43;;;;;;;;;;6241058;22;20441;-75
2020/12/06 14:31:36;;;;;;;32.60;24.57;;;;;;;;;;6241901;22;20456;-75
2020/12/06 14:34:09;;;;;;;34.83;24.23;;;;;;;;;;6243267;22;20469;-74
2020/12/06 14:39:26;;;;;;;32.50;24.70;;;;;;;;;;6152923;23;20409;-75
2020/12/06 14:42:02;;;;;;;41.73;23.60;;;;;;;;;;6216042;22;20499;-75
2020/12/06 14:44:33;;;;;;;34.23;22.23;;;;;;;;;;6246050;22;20998;-73
2020/12/06 14:47:03;;;;;;;38.63;25.27;;;;;;;;;;6244924;22;20877;-73
2020/12/06 14:49:55;;;;;;;39.90;25.80;;;;;;;;;;6246591;22;20884;-74
2020/12/06 14:52:34;;;;;;;39.93;25.10;;;;;;;;;;6238274;22;20474;-74
2020/12/06 14:55:16;;;;;;;36.10;21.60;;;;;;;;;;6244806;22;20409;-74
2020/12/06 14:57:44;;;;;;;39.17;24.67;;;;;;;;;;6242686;22;20555;-74
2020/12/06 15:00:15;;;;;;;36.27;24.47;;;;;;;;;;6241040;22;20416;-75
2020/12/06 15:02:52;;;;;;;33.30;22.13;;;;;;;;;;6241895;22;20425;-75
2020/12/06 15:05:26;;;;;;;37.33;25.07;;;;;;;;;;6241367;22;20828;-75
2020/12/06 15:08:03;;;;;;;37.67;24.23;;;;;;;;;;6242401;22;20750;-75
2020/12/06 15:10:32;;;;;;;36.07;25.40;;;;;;;;;;6220651;22;20449;-75
2020/12/06 15:13:01;;;;;;;34.87;23.17;;;;;;;;;;6243118;22;20406;-74
2020/12/06 15:15:32;;;;;;;37.53;24.30;;;;;;;;;;6242435;22;20706;-74
2020/12/06 15:18:00;;;;;;;36.70;23.37;;;;;;;;;;6242616;22;20493;-74
2020/12/06 15:20:27;;;;;;;41.00;26.20;;;;;;;;;;6243320;22;20428;-74
2020/12/06 15:22:55;;;;;;;39.27;25.50;;;;;;;;;;6242484;22;21022;-73
2020/12/06 15:25:26;;;;;;;38.50;25.43;;;;;;;;;;6243685;22;20696;-74
2020/12/06 15:27:53;;;;;;;39.23;26.27;;;;;;;;;;6243458;22;20633;-73
2020/12/06 15:30:21;;;;;;;38.43;24.60;;;;;;;;;;6241202;22;20464;-73
2020/12/06 15:32:48;;;;;;;38.93;24.60;;;;;;;;;;6243210;22;20488;-74
2020/12/06 15:35:20;;;;;;;43.07;24.47;;;;;;;;;;6243510;22;20410;-77
2020/12/06 15:37:47;;;;;;;37.10;23.00;;;;;;;;;;6243846;22;20479;-77
2020/12/06 15:40:29;;;;;;;36.00;24.53;;;;;;;;;;6245215;22;20414;-76
2020/12/06 15:42:58;;;;;;;38.00;24.43;;;;;;;;;;6243599;22;20417;-74
2020/12/06 15:45:25;;;;;;;33.00;23.07;;;;;;;;;;6243118;22;20479;-74
2020/12/06 15:47:52;;;;;;;37.90;23.77;;;;;;;;;;6242450;22;20699;-74
2020/12/06 15:50:26;;;;;;;42.87;25.33;;;;;;;;;;6242286;22;20924;-75
2020/12/06 15:52:54;;;;;;;41.60;28.87;;;;;;;;;;6243232;22;20824;-75